createdAt,value
2018-07-07T00:00:29.386Z,8.03
2018-07-07T00:02:58.184Z,8.50
2018-07-07T00:05:26.981Z,7.63
2018-07-07T00:07:55.743Z,8.67
2018-07-07T00:10:25.091Z,7.57
2018-07-07T00:12:53.852Z,7.67
2018-07-07T00:15:22.693Z,7.53
2018-07-07T00:17:52.607Z,8.00
2018-07-07T00:20:21.466Z,7.90
2018-07-07T00:22:50.280Z,7.77
2018-07-07T00:25:20.363Z,7.90
2018-07-07T00:27:49.710Z,7.73
2018-07-07T00:30:19.107Z,8.20
2018-07-07T00:32:48.070Z,7.90
2018-07-07T00:35:17.140Z,8.13
2018-07-07T00:37:45.901Z,7.70
2018-07-07T00:40:14.688Z,7.90
2018-07-07T00:42:43.893Z,8.43
2018-07-07T00:45:12.701Z,8.83
2018-07-07T00:47:41.468Z,8.03
2018-07-07T00:50:10.332Z,8.63
2018-07-07T00:52:39.204Z,8.33
2018-07-07T00:55:08.084Z,8.20
2018-07-07T00:57:36.924Z,8.40
2018-07-07T01:00:05.826Z,8.30
2018-07-07T01:02:34.665Z,8.20
2018-07-07T01:05:03.464Z,8.33
2018-07-07T01:07:32.226Z,8.20
2018-07-07T01:10:01.207Z,8.13
2018-07-07T01:12:30.141Z,8.77
2018-07-07T01:14:58.957Z,8.43
2018-07-07T01:17:28.436Z,8.80
2018-07-07T01:19:57.361Z,7.90
2018-07-07T01:22:25.889Z,8.47
2018-07-07T01:24:54.632Z,8.23
2018-07-07T01:27:23.628Z,8.10
2018-07-07T01:29:52.426Z,8.23
2018-07-07T01:32:21.221Z,8.30
2018-07-07T01:34:50.044Z,8.23
2018-07-07T01:37:18.980Z,8.53
2018-07-07T01:39:47.755Z,7.80
2018-07-07T01:42:16.541Z,8.00
2018-07-07T01:44:45.348Z,8.33
2018-07-07T01:47:14.433Z,8.73
2018-07-07T01:49:43.216Z,9.03
2018-07-07T01:52:12.101Z,8.37
2018-07-07T01:54:41.041Z,8.60
2018-07-07T01:57:10.256Z,9.43
2018-07-07T01:59:39.060Z,8.30
2018-07-07T02:02:07.881Z,8.30
2018-07-07T02:04:36.748Z,8.43
2018-07-07T02:07:05.586Z,7.87
2018-07-07T02:09:34.464Z,9.03
2018-07-07T02:12:03.007Z,8.60
2018-07-07T02:14:31.691Z,9.00
2018-07-07T02:17:00.530Z,8.47
2018-07-07T02:19:29.288Z,8.63
2018-07-07T02:21:58.127Z,8.20
2018-07-07T02:24:27.556Z,8.80
2018-07-07T02:26:56.320Z,9.27
2018-07-07T02:29:25.209Z,8.33
2018-07-07T02:31:53.976Z,8.40
2018-07-07T02:34:22.881Z,9.43
2018-07-07T02:36:51.665Z,9.80
2018-07-07T02:39:20.593Z,8.60
2018-07-07T02:41:49.521Z,9.00
2018-07-07T02:44:18.367Z,9.03
2018-07-07T02:46:47.144Z,9.23
2018-07-07T02:49:16.060Z,9.03
2018-07-07T02:51:44.900Z,8.80
2018-07-07T02:54:13.678Z,9.20
2018-07-07T02:56:42.458Z,9.23
2018-07-07T02:59:11.332Z,9.67
2018-07-07T03:01:40.573Z,9.77
2018-07-07T03:04:09.611Z,9.30
2018-07-07T03:06:38.501Z,8.50
2018-07-07T03:09:07.346Z,9.17
2018-07-07T03:11:36.129Z,9.47
2018-07-07T03:14:04.919Z,9.80
2018-07-07T03:16:33.722Z,10.03
2018-07-07T03:19:02.536Z,9.53
2018-07-07T03:21:31.362Z,8.93
2018-07-07T03:24:00.114Z,9.60
2018-07-07T03:26:29.921Z,10.20
2018-07-07T03:28:58.760Z,9.70
2018-07-07T03:31:27.561Z,10.17
2018-07-07T03:33:56.369Z,10.20
2018-07-07T03:36:25.135Z,10.90
2018-07-07T03:38:53.923Z,9.93
2018-07-07T03:41:22.676Z,10.43
2018-07-07T03:43:51.775Z,10.53
2018-07-07T03:46:20.288Z,9.63
2018-07-07T03:48:48.984Z,11.43
2018-07-07T03:51:17.766Z,10.33
2018-07-07T03:53:46.627Z,10.43
2018-07-07T03:56:15.392Z,10.47
2018-07-07T03:58:44.191Z,11.20
2018-07-07T04:01:13.388Z,10.67
2018-07-07T04:03:42.224Z,10.43
2018-07-07T04:06:10.988Z,10.57
2018-07-07T04:08:45.303Z,10.53
2018-07-07T04:11:14.072Z,10.00
2018-07-07T04:13:42.856Z,10.50
2018-07-07T04:16:11.652Z,10.60
2018-07-07T04:18:40.474Z,10.37
2018-07-07T04:21:09.248Z,10.30
2018-07-07T04:23:38.027Z,10.30
2018-07-07T04:26:06.784Z,10.10
2018-07-07T04:28:35.568Z,10.80
2018-07-07T04:31:04.336Z,11.00
2018-07-07T04:33:33.195Z,10.27
2018-07-07T04:36:01.957Z,10.97
2018-07-07T04:38:30.731Z,11.33
2018-07-07T04:40:59.536Z,10.57
2018-07-07T04:43:28.317Z,10.57
2018-07-07T04:45:57.201Z,10.40
2018-07-07T04:48:25.949Z,11.40
2018-07-07T04:50:54.728Z,11.30
2018-07-07T04:53:23.514Z,10.70
2018-07-07T04:55:52.288Z,10.73
2018-07-07T04:58:21.058Z,11.23
2018-07-07T05:00:49.848Z,11.07
2018-07-07T05:03:18.676Z,11.57
2018-07-07T05:05:47.473Z,11.83
2018-07-07T05:08:16.253Z,11.30
2018-07-07T05:10:45.024Z,11.17
2018-07-07T05:13:13.793Z,11.73
2018-07-07T05:15:42.545Z,12.00
2018-07-07T05:18:11.333Z,11.37
2018-07-07T05:20:40.120Z,11.70
2018-07-07T05:23:08.898Z,11.83
2018-07-07T05:25:37.664Z,11.77
2018-07-07T05:28:06.485Z,11.47
2018-07-07T05:30:35.262Z,12.00
2018-07-07T05:33:04.060Z,12.03
2018-07-07T05:35:32.889Z,11.93
2018-07-07T05:38:01.652Z,11.90
2018-07-07T05:40:30.423Z,12.20
2018-07-07T05:42:59.205Z,11.87
2018-07-07T05:45:27.981Z,11.77
2018-07-07T05:47:56.774Z,10.93
2018-07-07T05:50:25.544Z,11.60
2018-07-07T05:52:54.412Z,12.53
2018-07-07T05:55:23.212Z,12.53
2018-07-07T05:57:51.988Z,12.93
2018-07-07T06:00:20.776Z,12.60
2018-07-07T06:02:49.557Z,12.07
2018-07-07T06:05:18.362Z,11.40
2018-07-07T06:07:47.108Z,12.33
2018-07-07T06:10:15.877Z,13.40
2018-07-07T06:12:44.688Z,11.60
2018-07-07T06:15:13.588Z,12.27
2018-07-07T06:17:42.374Z,11.30
2018-07-07T06:20:11.186Z,11.73
2018-07-07T06:22:39.974Z,11.60
2018-07-07T06:25:08.584Z,11.03
2018-07-07T06:27:37.446Z,11.90
2018-07-07T06:30:06.700Z,11.67
2018-07-07T06:32:35.508Z,11.50
2018-07-07T06:35:04.336Z,11.37
2018-07-07T06:37:33.216Z,11.60
2018-07-07T06:40:01.969Z,12.43
2018-07-07T06:42:30.795Z,11.20
2018-07-07T06:44:59.612Z,10.97
2018-07-07T06:47:28.408Z,11.17
2018-07-07T06:49:57.233Z,10.67
2018-07-07T06:52:26.040Z,10.77
2018-07-07T06:54:54.839Z,11.03
2018-07-07T06:57:23.774Z,11.50
2018-07-07T06:59:52.576Z,11.40
2018-07-07T07:02:21.361Z,10.97
2018-07-07T07:04:50.143Z,10.63
2018-07-07T07:07:18.988Z,11.07
2018-07-07T07:09:47.803Z,10.97
2018-07-07T07:12:16.604Z,10.73
2018-07-07T07:14:45.398Z,10.73
2018-07-07T07:17:14.283Z,9.93
2018-07-07T07:19:43.164Z,10.13
2018-07-07T07:22:11.942Z,10.77
2018-07-07T07:24:40.742Z,10.10
2018-07-07T07:27:09.532Z,10.97
2018-07-07T07:29:38.356Z,10.30
2018-07-07T07:32:07.158Z,10.00
2018-07-07T07:34:35.953Z,9.43
2018-07-07T07:37:04.727Z,10.73
2018-07-07T07:39:33.548Z,10.20
2018-07-07T07:42:02.332Z,10.20
2018-07-07T07:44:31.139Z,10.90
2018-07-07T07:46:59.921Z,10.90
2018-07-07T07:49:28.733Z,11.13
2018-07-07T07:51:57.606Z,10.87
2018-07-07T07:54:26.504Z,10.10
2018-07-07T07:56:55.291Z,11.03
2018-07-07T07:59:29.599Z,10.77
2018-07-07T08:01:58.394Z,10.30
2018-07-07T08:04:27.197Z,10.20
2018-07-07T08:06:55.963Z,9.63
2018-07-07T08:09:24.709Z,9.97
2018-07-07T08:11:53.520Z,9.43
2018-07-07T08:14:23.415Z,11.57
2018-07-07T08:16:52.213Z,9.37
2018-07-07T08:19:21.022Z,9.17
2018-07-07T08:21:49.816Z,9.90
2018-07-07T08:24:18.804Z,8.73
2018-07-07T08:26:47.607Z,8.40
2018-07-07T08:29:16.384Z,7.30
2018-07-07T08:31:45.204Z,6.80
2018-07-07T08:34:13.956Z,7.30
2018-07-07T08:36:42.744Z,6.57
2018-07-07T08:39:11.600Z,5.30
2018-07-07T08:41:40.398Z,6.07
2018-07-07T08:44:09.212Z,5.10
2018-07-07T08:46:38.012Z,6.10
2018-07-07T08:49:06.768Z,7.00
2018-07-07T08:51:35.560Z,7.23
2018-07-07T08:54:04.316Z,7.43
2018-07-07T08:56:33.092Z,7.27
2018-07-07T08:59:01.860Z,6.90
2018-07-07T09:01:30.649Z,7.00
2018-07-07T09:03:59.464Z,6.23
2018-07-07T09:06:28.256Z,6.13
2018-07-07T09:08:57.052Z,5.40
2018-07-07T09:11:25.860Z,5.80
2018-07-07T09:13:54.648Z,6.33
2018-07-07T09:16:23.519Z,5.80
2018-07-07T09:18:52.366Z,6.07
2018-07-07T09:21:21.109Z,6.90
2018-07-07T09:23:49.920Z,6.60
2018-07-07T09:26:18.703Z,7.33
2018-07-07T09:28:47.504Z,6.60
2018-07-07T09:31:16.291Z,7.13
2018-07-07T09:33:45.085Z,7.00
2018-07-07T09:36:13.856Z,8.70
2018-07-07T09:38:42.684Z,9.27
2018-07-07T09:41:11.464Z,9.13
2018-07-07T09:43:40.348Z,11.50
2018-07-07T09:46:09.174Z,12.23
2018-07-07T09:48:37.993Z,13.27
2018-07-07T09:51:06.792Z,10.80
2018-07-07T09:53:35.592Z,13.47
2018-07-07T09:56:04.531Z,13.57
2018-07-07T09:58:33.329Z,12.33
2018-07-07T10:01:02.105Z,10.57
2018-07-07T10:03:30.913Z,10.33
2018-07-07T10:05:59.712Z,9.57
2018-07-07T10:08:28.516Z,9.30
2018-07-07T10:10:57.289Z,9.23
2018-07-07T10:13:26.135Z,8.67
2018-07-07T10:15:54.917Z,9.33
2018-07-07T10:18:23.734Z,9.03
2018-07-07T10:20:52.508Z,9.23
2018-07-07T10:23:21.325Z,9.57
2018-07-07T10:25:50.465Z,8.63
2018-07-07T10:28:19.371Z,9.00
2018-07-07T10:30:48.193Z,8.53
2018-07-07T10:33:16.969Z,8.93
2018-07-07T10:35:45.760Z,8.33
2018-07-07T10:38:14.622Z,8.90
2018-07-07T10:40:43.350Z,8.50
2018-07-07T10:43:12.144Z,8.00
2018-07-07T10:45:41.050Z,8.33
2018-07-07T10:48:09.755Z,8.57
2018-07-07T10:50:38.529Z,8.27
2018-07-07T10:53:07.336Z,7.60
2018-07-07T10:58:11.321Z,8.30
2018-07-07T11:00:40.099Z,9.80
2018-07-07T11:03:08.908Z,9.50
2018-07-07T11:05:37.696Z,8.07
2018-07-07T11:08:06.824Z,7.70
2018-07-07T11:10:35.609Z,8.20
2018-07-07T11:13:04.557Z,7.73
2018-07-07T11:15:33.349Z,8.37
2018-07-07T11:18:02.148Z,8.10
2018-07-07T11:20:30.929Z,9.03
2018-07-07T11:22:59.704Z,8.33
2018-07-07T11:25:28.515Z,8.97
2018-07-07T11:27:57.277Z,8.63
2018-07-07T11:30:26.057Z,8.77
2018-07-07T11:32:54.844Z,8.90
2018-07-07T11:35:23.704Z,8.27
2018-07-07T11:37:52.512Z,7.60
2018-07-07T11:40:21.414Z,7.97
2018-07-07T11:42:51.572Z,7.47
2018-07-07T11:45:20.431Z,8.10
2018-07-07T11:47:49.228Z,7.00
2018-07-07T11:50:18.067Z,7.70
2018-07-07T11:52:46.772Z,7.80
2018-07-07T11:55:15.564Z,7.40
2018-07-07T11:57:44.363Z,7.22
2018-07-07T12:00:13.149Z,7.43
2018-07-07T12:02:41.937Z,7.80
2018-07-07T12:05:10.757Z,8.17
2018-07-07T12:07:39.588Z,7.80
2018-07-07T12:10:08.663Z,7.83
2018-07-07T12:12:37.461Z,7.80
2018-07-07T12:15:06.324Z,7.30
2018-07-07T12:17:35.086Z,7.43
2018-07-07T12:20:03.909Z,7.20
2018-07-07T12:22:32.666Z,7.47
2018-07-07T12:25:02.505Z,6.90
2018-07-07T12:27:31.281Z,6.50
2018-07-07T12:30:00.071Z,7.37
2018-07-07T12:32:28.849Z,7.92
2018-07-07T12:34:57.823Z,7.97
2018-07-07T12:37:26.585Z,7.85
2018-07-07T12:39:55.380Z,8.20
2018-07-07T12:42:24.162Z,13.58
2018-07-07T12:44:53.020Z,8.95
2018-07-07T12:47:22.041Z,8.10
2018-07-07T12:49:50.812Z,8.10
2018-07-07T12:52:19.572Z,8.95
2018-07-07T12:54:48.365Z,9.57
2018-07-07T12:57:17.166Z,8.63
2018-07-07T12:59:45.980Z,8.33
2018-07-07T13:02:14.801Z,8.33
2018-07-07T13:04:43.589Z,7.78
2018-07-07T13:07:12.365Z,29.70
2018-07-07T13:09:41.193Z,7.35
2018-07-07T13:12:10.000Z,7.42
2018-07-07T13:14:38.804Z,7.33
2018-07-07T13:17:07.733Z,6.80
2018-07-07T13:19:36.496Z,6.45
2018-07-07T13:22:05.291Z,6.45
2018-07-07T13:24:34.058Z,6.03
2018-07-07T13:27:02.872Z,6.33
2018-07-07T13:29:31.649Z,15.60
2018-07-07T13:32:00.529Z,6.90
2018-07-07T13:34:29.399Z,7.33
2018-07-07T13:36:58.252Z,6.47
2018-07-07T13:39:27.070Z,6.65
2018-07-07T13:41:55.884Z,6.70
2018-07-07T13:44:24.660Z,6.50
2018-07-07T13:46:53.475Z,6.40
2018-07-07T13:49:22.254Z,6.10
2018-07-07T13:51:51.064Z,6.55
2018-07-07T13:54:20.121Z,7.35
2018-07-07T13:56:48.917Z,7.08
2018-07-07T13:59:17.726Z,5.97
2018-07-07T14:01:46.574Z,6.40
2018-07-07T14:04:15.368Z,6.70
2018-07-07T14:06:44.153Z,6.75
2018-07-07T14:09:12.941Z,6.35
2018-07-07T14:11:41.754Z,7.37
2018-07-07T14:14:10.543Z,6.45
2018-07-07T14:16:39.405Z,6.67
2018-07-07T14:19:08.197Z,6.12
2018-07-07T14:21:37.003Z,5.95
2018-07-07T14:24:05.870Z,5.78
2018-07-07T14:26:34.715Z,6.25
2018-07-07T14:29:03.541Z,7.78
2018-07-07T14:31:32.363Z,5.85
2018-07-07T14:34:00.913Z,6.00
2018-07-07T14:36:29.608Z,6.12
2018-07-07T14:38:58.392Z,5.72
2018-07-07T14:41:27.199Z,5.55
2018-07-07T14:44:02.524Z,5.20
2018-07-07T14:46:32.351Z,5.40
2018-07-07T14:49:01.170Z,6.00
2018-07-07T14:51:30.013Z,5.80
2018-07-07T14:53:58.803Z,5.97
2018-07-07T14:56:28.333Z,6.47
2018-07-07T14:58:57.951Z,6.42
2018-07-07T15:01:26.747Z,6.55
2018-07-07T15:03:55.528Z,6.58
2018-07-07T15:06:24.324Z,5.60
2018-07-07T15:08:53.106Z,5.40
2018-07-07T15:11:21.871Z,5.12
2018-07-07T15:13:50.763Z,5.87
2018-07-07T15:16:20.608Z,6.15
2018-07-07T15:18:49.396Z,6.10
2018-07-07T15:21:18.218Z,6.17
2018-07-07T15:23:47.010Z,7.33
2018-07-07T15:26:15.824Z,6.70
2018-07-07T15:28:44.633Z,7.10
2018-07-07T15:31:13.437Z,7.00
2018-07-07T15:33:42.215Z,7.45
2018-07-07T15:36:11.026Z,6.60
2018-07-07T15:38:39.815Z,6.85
2018-07-07T15:41:08.592Z,6.60
2018-07-07T15:43:37.492Z,6.90
2018-07-07T15:46:06.336Z,6.53
2018-07-07T15:48:35.105Z,6.55
2018-07-07T15:51:03.897Z,6.92
2018-07-07T15:53:32.677Z,7.28
2018-07-07T15:56:01.544Z,7.00
2018-07-07T15:58:30.351Z,6.80
2018-07-07T16:00:59.140Z,6.67
2018-07-07T16:03:27.928Z,6.80
2018-07-07T16:05:56.708Z,7.00
2018-07-07T16:08:25.674Z,7.65
2018-07-07T16:10:54.455Z,6.72
2018-07-07T16:13:24.153Z,6.95
2018-07-07T16:15:52.911Z,6.35
2018-07-07T16:18:21.708Z,5.78
2018-07-07T16:20:50.523Z,6.15
2018-07-07T16:23:19.296Z,6.65
2018-07-07T16:25:48.068Z,5.67
2018-07-07T16:28:16.893Z,7.10
2018-07-07T16:30:45.691Z,6.10
2018-07-07T16:33:14.480Z,6.75
2018-07-07T16:35:43.313Z,6.85
2018-07-07T16:38:12.126Z,6.65
2018-07-07T16:40:40.920Z,8.50
2018-07-07T16:43:09.744Z,7.70
2018-07-07T16:45:38.580Z,6.25
2018-07-07T16:48:07.140Z,5.60
2018-07-07T16:50:35.829Z,6.20
2018-07-07T16:53:04.703Z,6.05
2018-07-07T16:55:33.485Z,6.05
2018-07-07T16:58:02.272Z,6.30
2018-07-07T17:00:31.216Z,6.47
2018-07-07T17:02:59.965Z,6.10
2018-07-07T17:05:28.809Z,5.60
2018-07-07T17:07:57.611Z,6.40
2018-07-07T17:10:26.409Z,6.03
2018-07-07T17:12:55.216Z,5.62
2018-07-07T17:15:24.143Z,6.55
2018-07-07T17:17:52.917Z,6.10
2018-07-07T17:20:21.704Z,5.80
2018-07-07T17:22:50.950Z,6.35
2018-07-07T17:25:19.838Z,6.78
2018-07-07T17:27:48.632Z,7.22
2018-07-07T17:30:18.051Z,7.53
2018-07-07T17:32:46.849Z,7.20
2018-07-07T17:35:15.685Z,7.83
2018-07-07T17:37:44.516Z,16.37
2018-07-07T17:40:13.373Z,18.60
2018-07-07T17:42:42.134Z,9.20
2018-07-07T17:45:10.925Z,8.90
2018-07-07T17:47:39.763Z,7.63
2018-07-07T17:50:08.570Z,6.90
2018-07-07T17:52:37.372Z,8.00
2018-07-07T17:55:07.408Z,7.20
2018-07-07T17:57:37.214Z,8.10
2018-07-07T18:00:06.029Z,7.13
2018-07-07T18:02:34.800Z,10.30
2018-07-07T18:05:03.645Z,9.13
2018-07-07T18:07:32.502Z,6.10
2018-07-07T18:10:01.288Z,5.67
2018-07-07T18:12:30.173Z,6.13
2018-07-07T18:14:58.993Z,6.83
2018-07-07T18:17:27.772Z,6.00
2018-07-07T18:19:56.565Z,6.60
2018-07-07T18:22:25.983Z,5.97
2018-07-07T18:24:54.717Z,6.63
2018-07-07T18:27:23.244Z,6.60
2018-07-07T18:29:51.944Z,6.70
2018-07-07T18:32:21.552Z,6.60
2018-07-07T18:34:50.383Z,6.93
2018-07-07T18:37:19.210Z,6.50
2018-07-07T18:39:48.083Z,6.97
2018-07-07T18:42:16.954Z,6.60
2018-07-07T18:44:45.752Z,7.30
2018-07-07T18:47:14.558Z,8.33
2018-07-07T18:49:43.364Z,8.47
2018-07-07T18:52:12.143Z,8.27
2018-07-07T18:54:41.976Z,8.33
2018-07-07T18:57:10.777Z,7.40
2018-07-07T18:59:39.569Z,6.80
2018-07-07T19:02:08.376Z,7.63
2018-07-07T19:04:37.155Z,9.30
2018-07-07T19:07:05.922Z,7.47
2018-07-07T19:09:34.769Z,7.73
2018-07-07T19:12:03.594Z,6.83
2018-07-07T19:14:32.380Z,6.90
2018-07-07T19:17:01.327Z,7.03
2018-07-07T19:19:30.136Z,6.80
2018-07-07T19:22:04.377Z,6.63
2018-07-07T19:24:38.590Z,7.47
2018-07-07T19:27:07.824Z,7.27
2018-07-07T19:29:36.608Z,8.37
2018-07-07T19:32:10.810Z,7.47
2018-07-07T19:34:45.073Z,7.97
2018-07-07T19:37:17.391Z,8.83
2018-07-07T19:39:46.776Z,7.43
2018-07-07T19:42:15.706Z,7.87
2018-07-07T19:44:44.533Z,8.03
2018-07-07T19:47:13.315Z,9.77
2018-07-07T19:49:42.154Z,9.03
2018-07-07T19:52:11.236Z,7.67
2018-07-07T19:54:40.039Z,8.37
2018-07-07T19:57:08.852Z,8.23
2018-07-07T19:59:37.644Z,9.20
2018-07-07T20:02:06.537Z,8.10
2018-07-07T20:04:35.372Z,8.53
2018-07-07T20:07:04.185Z,8.13
2018-07-07T20:09:33.044Z,9.17
2018-07-07T20:12:01.845Z,8.53
2018-07-07T20:14:30.636Z,8.90
2018-07-07T20:17:04.168Z,8.73
2018-07-07T20:19:39.084Z,9.03
2018-07-07T20:22:07.826Z,8.23
2018-07-07T20:24:38.000Z,9.00
2018-07-07T20:27:13.022Z,8.30
2018-07-07T20:29:42.112Z,8.57
2018-07-07T20:32:16.381Z,8.53
2018-07-07T20:34:45.203Z,9.17
2018-07-07T20:37:14.038Z,8.77
2018-07-07T20:39:42.853Z,9.33
2018-07-07T20:42:11.696Z,9.23
2018-07-07T20:44:40.492Z,8.80
2018-07-07T20:47:09.347Z,9.57
2018-07-07T20:49:38.204Z,11.00
2018-07-07T20:52:07.020Z,9.20
2018-07-07T20:54:35.837Z,9.43
2018-07-07T20:57:04.672Z,8.90
2018-07-07T20:59:33.491Z,9.57
2018-07-07T21:02:02.286Z,9.20
2018-07-07T21:04:31.108Z,9.03
2018-07-07T21:06:59.926Z,9.63
2018-07-07T21:09:28.754Z,9.47
2018-07-07T21:11:57.620Z,10.23
2018-07-07T21:14:26.413Z,8.70
2018-07-07T21:16:55.291Z,10.00
2018-07-07T21:19:24.161Z,9.17
2018-07-07T21:21:52.707Z,9.80
2018-07-07T21:24:21.465Z,9.67
2018-07-07T21:26:50.305Z,8.93
2018-07-07T21:29:19.152Z,9.10
2018-07-07T21:31:47.940Z,9.33
2018-07-07T21:34:16.775Z,8.70
2018-07-07T21:36:45.616Z,9.33
2018-07-07T21:39:14.432Z,9.00
2018-07-07T21:41:43.272Z,9.40
2018-07-07T21:44:12.078Z,9.17
2018-07-07T21:46:40.901Z,9.70
2018-07-07T21:49:09.736Z,9.83
2018-07-07T21:51:38.568Z,9.30
2018-07-07T21:54:07.456Z,9.30
2018-07-07T21:56:36.289Z,9.60
2018-07-07T21:59:10.573Z,10.13
2018-07-07T22:02:02.604Z,10.67
2018-07-07T22:04:36.666Z,9.80
2018-07-07T22:07:11.977Z,9.80
2018-07-07T22:09:41.216Z,11.20
2018-07-07T22:12:10.061Z,9.93
2018-07-07T22:14:38.877Z,10.63
2018-07-07T22:17:07.701Z,9.77
2018-07-07T22:19:36.587Z,10.40
2018-07-07T22:22:06.440Z,10.53
2018-07-07T22:24:35.465Z,9.97
2018-07-07T22:27:06.267Z,10.30
2018-07-07T22:29:35.087Z,10.30
2018-07-07T22:32:05.267Z,9.97
2018-07-07T22:34:38.114Z,10.53
2018-07-07T22:37:07.133Z,10.30
2018-07-07T22:39:37.074Z,9.80
2018-07-07T22:42:07.024Z,10.00
2018-07-07T22:44:36.507Z,10.60
2018-07-07T22:47:05.384Z,10.77
2018-07-07T22:49:34.212Z,10.90
2018-07-07T22:52:04.165Z,11.17
2018-07-07T22:54:33.187Z,10.57
2018-07-07T22:57:02.091Z,10.60
2018-07-07T22:59:30.995Z,10.47
2018-07-07T23:02:00.020Z,10.70
2018-07-07T23:04:28.874Z,11.17
2018-07-07T23:06:57.726Z,9.67
2018-07-07T23:09:26.669Z,10.77
2018-07-07T23:11:55.544Z,11.10
2018-07-07T23:14:24.392Z,11.17
2018-07-07T23:16:57.208Z,10.47
2018-07-07T23:19:26.356Z,10.37
2018-07-07T23:21:55.299Z,10.93
2018-07-07T23:24:24.151Z,11.03
2018-07-07T23:26:53.071Z,11.63
2018-07-07T23:29:21.894Z,11.40
2018-07-07T23:31:50.699Z,11.23
2018-07-07T23:34:19.500Z,11.53
2018-07-07T23:36:48.292Z,10.97
2018-07-07T23:39:17.124Z,11.63
2018-07-07T23:41:45.939Z,11.63
2018-07-07T23:44:14.754Z,11.43
2018-07-07T23:46:43.545Z,11.10
2018-07-07T23:49:12.366Z,10.17
2018-07-07T23:51:41.214Z,11.00
2018-07-07T23:54:10.016Z,12.33
2018-07-07T23:56:38.859Z,10.60
2018-07-07T23:59:07.658Z,11.60
